createdAt,value
2023-04-15T00:00:46.548Z,71.38
2023-04-15T00:02:30.573Z,71.77
2023-04-15T00:04:01.097Z,72.01
2023-04-15T00:05:53.592Z,71.48
2023-04-15T00:07:32.613Z,71.70
2023-04-15T00:08:53.636Z,71.84
2023-04-15T00:10:23.480Z,72.08
2023-04-15T00:12:06.798Z,72.03
2023-04-15T00:13:38.890Z,72.79
2023-04-15T00:15:22.521Z,72.37
2023-04-15T00:16:45.044Z,71.94
2023-04-15T00:18:36.725Z,72.26
2023-04-15T00:20:08.771Z,72.14
2023-04-15T00:21:42.534Z,72.04
2023-04-15T00:23:04.862Z,71.91
2023-04-15T00:24:44.186Z,71.81
2023-04-15T00:26:24.597Z,72.28
2023-04-15T00:28:08.500Z,72.10
2023-04-15T00:29:40.547Z,72.00
2023-04-15T00:31:27.757Z,72.26
2023-04-15T00:33:15.215Z,71.73
2023-04-15T00:34:59.049Z,71.78
2023-04-15T00:36:33.346Z,72.07
2023-04-15T00:37:55.261Z,72.14
2023-04-15T00:39:29.760Z,71.90
2023-04-15T00:41:03.527Z,72.13
2023-04-15T00:42:35.848Z,71.92
2023-04-15T00:44:19.392Z,71.97
2023-04-15T00:45:58.688Z,72.12
2023-04-15T00:47:18.761Z,72.24
2023-04-15T00:48:57.987Z,71.91
2023-04-15T00:50:50.554Z,72.22
2023-04-15T00:52:34.074Z,72.63
2023-04-15T00:54:18.736Z,72.82
2023-04-15T00:56:02.308Z,72.59
2023-04-15T00:57:32.439Z,73.08
2023-04-15T00:59:17.317Z,73.29
2023-04-15T01:01:00.808Z,73.53
2023-04-15T01:02:35.571Z,73.70
2023-04-15T01:04:15.065Z,73.92
2023-04-15T01:05:58.881Z,73.66
2023-04-15T01:07:33.507Z,74.04
2023-04-15T01:08:53.519Z,74.14
2023-04-15T01:10:25.706Z,74.44
2023-04-15T01:12:00.166Z,74.55
2023-04-15T01:13:32.146Z,74.75
2023-04-15T01:15:03.879Z,74.34
2023-04-15T01:16:38.484Z,74.26
2023-04-15T01:18:17.521Z,74.70
2023-04-15T01:20:01.098Z,74.92
2023-04-15T01:21:44.697Z,74.84
2023-04-15T01:23:18.716Z,75.41
2023-04-15T01:24:48.809Z,75.21
2023-04-15T01:26:42.351Z,75.19
2023-04-15T01:28:15.452Z,75.44
2023-04-15T01:29:48.387Z,75.27
2023-04-15T01:31:31.861Z,75.16
2023-04-15T01:33:01.947Z,75.82
2023-04-15T01:34:29.879Z,75.58
2023-04-15T01:36:03.893Z,75.63
2023-04-15T01:37:43.284Z,75.95
2023-04-15T01:39:26.776Z,75.62
2023-04-15T01:41:11.048Z,75.63
2023-04-15T01:42:36.204Z,75.56
2023-04-15T01:44:10.254Z,75.51
2023-04-15T01:45:37.913Z,76.17
2023-04-15T01:47:10.019Z,75.99
2023-04-15T01:48:42.341Z,75.64
2023-04-15T01:50:04.537Z,76.22
2023-04-15T01:51:48.053Z,76.17
2023-04-15T01:53:22.959Z,76.48
2023-04-15T01:54:55.694Z,76.81
2023-04-15T01:56:29.779Z,76.20
2023-04-15T01:58:05.343Z,76.10
2023-04-15T01:59:37.596Z,76.37
2023-04-15T02:01:21.438Z,76.46
2023-04-15T02:03:04.161Z,76.71
2023-04-15T02:04:43.653Z,76.95
2023-04-15T02:06:16.001Z,76.65
2023-04-15T02:07:38.777Z,76.99
2023-04-15T02:09:22.468Z,77.04
2023-04-15T02:10:57.573Z,77.21
2023-04-15T02:12:38.894Z,76.87
2023-04-15T02:14:22.585Z,76.92
2023-04-15T02:15:54.296Z,77.50
2023-04-15T02:17:40.632Z,77.44
2023-04-15T02:19:13.061Z,77.53
2023-04-15T02:21:05.552Z,77.41
2023-04-15T02:22:37.515Z,77.12
2023-04-15T02:24:16.713Z,77.45
2023-04-15T02:25:53.831Z,77.56
2023-04-15T02:27:47.567Z,77.62
2023-04-15T02:29:31.162Z,77.61
2023-04-15T02:31:05.686Z,77.69
2023-04-15T02:32:46.570Z,78.03
2023-04-15T02:34:14.331Z,77.57
2023-04-15T02:35:58.523Z,77.82
2023-04-15T02:37:51.536Z,78.02
2023-04-15T02:39:14.101Z,78.35
2023-04-15T02:40:57.906Z,78.48
2023-04-15T02:42:33.248Z,78.31
2023-04-15T02:44:13.081Z,78.15
2023-04-15T02:45:48.473Z,78.27
2023-04-15T02:47:23.104Z,78.14
2023-04-15T02:49:02.391Z,78.30
2023-04-15T02:50:35.005Z,78.26
2023-04-15T02:52:18.745Z,78.24
2023-04-15T02:53:41.901Z,78.62
2023-04-15T02:55:13.603Z,78.61
2023-04-15T02:57:06.569Z,78.96
2023-04-15T02:58:38.742Z,78.93
2023-04-15T03:00:08.786Z,78.79
2023-04-15T03:01:52.942Z,78.57
2023-04-15T03:03:27.544Z,78.53
2023-04-15T03:05:10.944Z,78.90
2023-04-15T03:06:43.677Z,78.56
2023-04-15T03:08:16.525Z,78.63
2023-04-15T03:10:00.685Z,78.46
2023-04-15T03:11:39.951Z,78.69
2023-04-15T03:13:20.978Z,78.84
2023-04-15T03:15:05.076Z,78.77
2023-04-15T03:16:52.955Z,79.08
2023-04-15T03:18:13.264Z,78.60
2023-04-15T03:19:53.684Z,78.84
2023-04-15T03:21:25.677Z,79.18
2023-04-15T03:23:04.510Z,78.95
2023-04-15T03:24:25.411Z,78.98
2023-04-15T03:25:57.264Z,79.06
2023-04-15T03:27:45.381Z,78.92
2023-04-15T03:29:29.101Z,78.96
2023-04-15T03:31:12.916Z,78.96
2023-04-15T03:32:56.615Z,79.59
2023-04-15T03:34:28.758Z,78.94
2023-04-15T03:35:51.794Z,79.30
2023-04-15T03:37:14.630Z,79.03
2023-04-15T03:39:04.536Z,79.29
2023-04-15T03:40:36.867Z,78.95
2023-04-15T03:42:08.985Z,78.93
2023-04-15T03:43:28.964Z,79.31
2023-04-15T03:45:00.887Z,78.92
2023-04-15T03:46:32.938Z,79.07
2023-04-15T03:47:55.433Z,78.90
2023-04-15T03:49:39.030Z,79.16
2023-04-15T03:51:01.834Z,79.43
2023-04-15T03:52:36.124Z,78.86
2023-04-15T03:54:15.428Z,79.21
2023-04-15T03:55:56.669Z,79.56
2023-04-15T03:57:40.161Z,79.43
2023-04-15T03:59:14.764Z,79.24
2023-04-15T04:00:50.668Z,79.25
2023-04-15T04:02:23.254Z,79.21
2023-04-15T04:03:58.164Z,79.41
2023-04-15T04:05:50.081Z,79.45
2023-04-15T04:07:33.545Z,79.57
2023-04-15T04:09:17.358Z,79.32
2023-04-15T04:11:01.146Z,79.59
2023-04-15T04:12:45.091Z,79.24
2023-04-15T04:14:37.541Z,79.07
2023-04-15T04:16:27.852Z,79.30
2023-04-15T04:18:12.039Z,79.51
2023-04-15T04:19:55.611Z,79.67
2023-04-15T04:21:39.367Z,79.42
2023-04-15T04:23:32.527Z,79.42
2023-04-15T04:25:15.965Z,79.65
2023-04-15T04:26:46.476Z,79.44
2023-04-15T04:28:18.340Z,79.74
2023-04-15T04:29:50.305Z,79.48
2023-04-15T04:31:24.412Z,79.63
2023-04-15T04:32:56.052Z,79.30
2023-04-15T04:34:39.551Z,79.35
2023-04-15T04:36:23.263Z,79.44
2023-04-15T04:38:04.761Z,79.64
2023-04-15T04:39:48.215Z,79.59
2023-04-15T04:41:40.210Z,79.39
2023-04-15T04:43:11.980Z,79.72
2023-04-15T04:44:46.970Z,79.55
2023-04-15T04:46:30.373Z,79.33
2023-04-15T04:48:09.399Z,79.16
2023-04-15T04:49:54.366Z,79.73
2023-04-15T04:51:33.728Z,79.54
2023-04-15T04:53:05.406Z,79.25
2023-04-15T04:54:37.345Z,79.59
2023-04-15T04:56:21.042Z,79.98
2023-04-15T04:58:02.650Z,79.41
2023-04-15T04:59:42.036Z,79.13
2023-04-15T05:01:14.014Z,79.31
2023-04-15T05:05:01.336Z,79.29
2023-04-15T05:08:55.537Z,79.32
2023-04-15T05:10:39.497Z,79.27
2023-04-15T05:12:20.198Z,79.55
2023-04-15T05:14:03.765Z,79.17
2023-04-15T05:15:56.335Z,79.44
2023-04-15T05:17:48.019Z,79.42
2023-04-15T05:19:22.280Z,78.95
2023-04-15T05:20:59.971Z,79.06
2023-04-15T05:22:40.873Z,79.32
2023-04-15T05:24:03.108Z,78.95
2023-04-15T05:25:47.364Z,79.23
2023-04-15T05:27:27.513Z,79.26
2023-04-15T05:29:11.201Z,79.36
2023-04-15T05:30:43.388Z,79.09
2023-04-15T05:32:35.327Z,79.44
2023-04-15T05:34:18.431Z,78.90
2023-04-15T05:35:53.064Z,78.88
2023-04-15T05:37:22.822Z,78.86
2023-04-15T05:38:46.062Z,78.57
2023-04-15T05:40:26.736Z,79.18
2023-04-15T05:42:10.853Z,78.80
2023-04-15T05:43:54.556Z,78.63
2023-04-15T05:45:28.990Z,78.74
2023-04-15T05:47:08.039Z,78.90
2023-04-15T05:48:28.329Z,78.44
2023-04-15T05:50:02.537Z,78.93
2023-04-15T05:51:49.139Z,79.08
2023-04-15T05:53:32.829Z,78.92
2023-04-15T05:55:16.697Z,78.54
2023-04-15T05:56:46.466Z,78.69
2023-04-15T05:58:25.917Z,78.85
2023-04-15T06:01:56.886Z,78.48
2023-04-15T06:03:36.477Z,78.60
2023-04-15T06:05:20.667Z,78.46
2023-04-15T06:06:56.284Z,79.00
2023-04-15T06:08:46.273Z,78.79
2023-04-15T06:10:06.564Z,78.67
2023-04-15T06:11:53.447Z,78.14
2023-04-15T06:13:25.444Z,77.97
2023-04-15T06:15:09.287Z,78.23
2023-04-15T06:16:30.502Z,78.07
2023-04-15T06:17:57.983Z,78.39
2023-04-15T06:19:32.184Z,77.86
2023-04-15T06:21:04.262Z,78.49
2023-04-15T06:22:35.440Z,78.56
2023-04-15T06:24:09.255Z,78.24
2023-04-15T06:25:57.229Z,78.26
2023-04-15T06:27:29.379Z,78.09
2023-04-15T06:29:03.558Z,78.15
2023-04-15T06:30:47.441Z,78.02
2023-04-15T06:32:19.353Z,78.26
2023-04-15T06:34:02.906Z,77.54
2023-04-15T06:35:46.680Z,77.87
2023-04-15T06:37:21.023Z,77.86
2023-04-15T06:39:04.618Z,77.82
2023-04-15T06:40:56.920Z,77.95
2023-04-15T06:42:48.876Z,77.98
2023-04-15T06:44:23.556Z,78.29
2023-04-15T06:45:57.762Z,77.46
2023-04-15T06:47:29.667Z,77.89
2023-04-15T06:49:04.092Z,77.80
2023-04-15T06:50:27.347Z,77.73
2023-04-15T06:51:59.958Z,77.93
2023-04-15T06:53:22.625Z,78.03
2023-04-15T06:55:06.077Z,77.84
2023-04-15T06:56:38.316Z,77.79
2023-04-15T06:58:21.951Z,77.85
2023-04-15T06:59:53.887Z,77.69
2023-04-15T07:01:19.012Z,77.61
2023-04-15T07:03:02.894Z,77.52
2023-04-15T07:04:45.298Z,77.21
2023-04-15T07:06:29.022Z,77.80
2023-04-15T07:07:58.508Z,78.25
2023-04-15T07:09:33.462Z,77.17
2023-04-15T07:10:58.680Z,77.21
2023-04-15T07:12:42.499Z,77.69
2023-04-15T07:14:16.667Z,77.59
2023-04-15T07:15:48.600Z,78.20
2023-04-15T07:17:18.471Z,78.07
2023-04-15T07:18:46.339Z,77.74
2023-04-15T07:20:09.626Z,77.86
2023-04-15T07:21:54.503Z,77.71
2023-04-15T07:23:24.563Z,77.57
2023-04-15T07:24:59.252Z,77.89
2023-04-15T07:26:27.007Z,78.13
2023-04-15T07:28:10.758Z,78.35
2023-04-15T07:30:03.565Z,78.51
2023-04-15T07:31:38.240Z,78.06
2023-04-15T07:33:04.110Z,77.89
2023-04-15T07:34:44.312Z,78.05
2023-04-15T07:36:12.533Z,78.73
2023-04-15T07:37:47.024Z,78.18
2023-04-15T07:39:30.427Z,77.98
2023-04-15T07:41:14.812Z,77.83
2023-04-15T07:42:50.552Z,77.86
2023-04-15T07:44:43.556Z,78.22
2023-04-15T07:46:27.148Z,77.87
2023-04-15T07:48:11.528Z,77.88
2023-04-15T07:49:55.392Z,78.08
2023-04-15T07:51:48.559Z,77.90
2023-04-15T07:53:40.514Z,77.93
2023-04-15T07:55:23.896Z,77.79
2023-04-15T07:56:58.073Z,78.20
2023-04-15T07:58:32.327Z,77.83
2023-04-15T08:00:17.737Z,77.80
2023-04-15T08:02:01.711Z,77.48
2023-04-15T08:03:45.419Z,78.40
2023-04-15T08:05:28.904Z,78.03
2023-04-15T08:07:03.320Z,77.98
2023-04-15T08:08:37.874Z,78.17
2023-04-15T08:10:00.465Z,78.31
2023-04-15T08:11:28.244Z,78.28
2023-04-15T08:13:00.725Z,78.75
2023-04-15T08:14:33.401Z,78.28
2023-04-15T08:16:17.195Z,78.50
2023-04-15T08:17:49.743Z,78.08
2023-04-15T08:19:28.848Z,78.27
2023-04-15T08:21:07.881Z,78.20
2023-04-15T08:23:00.043Z,78.00
2023-04-15T08:24:39.526Z,78.42
2023-04-15T08:26:07.605Z,78.49
2023-04-15T08:27:37.138Z,78.03
2023-04-15T08:29:00.194Z,78.28
2023-04-15T08:30:32.591Z,78.17
2023-04-15T08:32:07.448Z,78.18
2023-04-15T08:33:51.324Z,78.29
2023-04-15T08:35:23.282Z,78.70
2023-04-15T08:36:46.924Z,78.12
2023-04-15T08:38:26.204Z,78.03
2023-04-15T08:39:58.209Z,78.22
2023-04-15T08:41:49.845Z,78.39
2023-04-15T08:43:35.129Z,78.07
2023-04-15T08:45:04.997Z,78.70
2023-04-15T08:46:49.189Z,78.09
2023-04-15T08:48:23.751Z,78.35
2023-04-15T08:49:55.890Z,78.16
2023-04-15T08:51:25.830Z,78.37
2023-04-15T08:52:57.753Z,77.96
2023-04-15T08:54:33.021Z,77.95
2023-04-15T08:56:03.018Z,78.03
2023-04-15T08:57:43.684Z,77.88
2023-04-15T08:59:06.341Z,78.33
2023-04-15T09:00:46.814Z,78.32
2023-04-15T09:02:30.504Z,77.88
2023-04-15T09:04:02.417Z,77.94
2023-04-15T09:05:36.438Z,78.11
2023-04-15T09:07:08.116Z,78.17
2023-04-15T09:08:35.953Z,77.40
2023-04-15T09:10:15.556Z,78.06
2023-04-15T09:11:59.016Z,77.69
2023-04-15T09:13:47.641Z,77.49
2023-04-15T09:15:21.660Z,77.48
2023-04-15T09:16:53.791Z,77.91
2023-04-15T09:18:37.503Z,77.73
2023-04-15T09:20:12.399Z,77.26
2023-04-15T09:21:34.150Z,77.10
2023-04-15T09:23:07.621Z,77.17
2023-04-15T09:24:53.122Z,77.22
2023-04-15T09:26:15.992Z,76.90
2023-04-15T09:27:48.506Z,76.87
2023-04-15T09:29:08.576Z,77.20
2023-04-15T09:30:52.072Z,76.91
2023-04-15T09:32:43.990Z,76.40
2023-04-15T09:34:18.089Z,76.10
2023-04-15T09:35:40.666Z,75.72
2023-04-15T09:37:31.743Z,76.39
2023-04-15T09:39:16.074Z,75.48
2023-04-15T09:40:48.280Z,75.16
2023-04-15T09:42:10.788Z,75.53
2023-04-15T09:43:42.971Z,75.32
2023-04-15T09:45:29.363Z,75.40
2023-04-15T09:47:02.460Z,75.09
2023-04-15T09:48:34.606Z,74.68
2023-04-15T09:50:06.281Z,74.35
2023-04-15T09:52:05.056Z,74.08
2023-04-15T09:53:48.584Z,74.30
2023-04-15T09:55:32.154Z,74.17
2023-04-15T09:57:11.692Z,74.09
2023-04-15T09:58:51.171Z,73.85
2023-04-15T10:00:26.261Z,74.08
2023-04-15T10:02:01.021Z,73.75
2023-04-15T10:03:45.223Z,73.54
2023-04-15T10:05:13.286Z,73.98
2023-04-15T10:06:45.806Z,73.76
2023-04-15T10:08:18.293Z,73.43
2023-04-15T10:09:46.348Z,73.23
2023-04-15T10:11:30.428Z,73.11
2023-04-15T10:13:05.754Z,73.01
2023-04-15T10:14:27.646Z,73.05
2023-04-15T10:15:58.832Z,72.94
2023-04-15T10:17:33.060Z,73.17
2023-04-15T10:19:01.242Z,73.07
2023-04-15T10:20:31.352Z,73.34
2023-04-15T10:22:01.507Z,73.26
2023-04-15T10:23:41.204Z,73.61
2023-04-15T10:25:15.919Z,73.24
2023-04-15T10:26:47.869Z,73.33
2023-04-15T10:28:40.065Z,73.02
2023-04-15T10:30:23.889Z,72.65
2023-04-15T10:32:00.420Z,72.85
2023-04-15T10:33:44.632Z,72.89
2023-04-15T10:35:27.931Z,72.33
2023-04-15T10:37:12.507Z,72.35
2023-04-15T10:38:47.746Z,72.04
2023-04-15T10:40:33.594Z,71.50
2023-04-15T10:41:54.084Z,71.73
2023-04-15T10:43:16.545Z,71.65
2023-04-15T10:44:52.164Z,71.23
2023-04-15T10:46:26.128Z,71.54
2023-04-15T10:48:09.685Z,71.94
2023-04-15T10:49:52.089Z,72.58
2023-04-15T10:51:44.580Z,72.49
2023-04-15T10:53:16.417Z,72.17
2023-04-15T10:54:48.209Z,71.95
2023-04-15T10:56:38.238Z,71.49
2023-04-15T10:58:17.569Z,71.35
2023-04-15T11:00:01.183Z,71.41
2023-04-15T11:01:46.098Z,71.61
2023-04-15T11:03:14.103Z,71.45
2023-04-15T11:04:53.780Z,71.54
2023-04-15T11:06:37.728Z,72.49
2023-04-15T11:07:58.005Z,71.73
2023-04-15T11:09:41.237Z,70.37
2023-04-15T11:11:24.668Z,69.46
2023-04-15T11:12:58.816Z,69.16
2023-04-15T11:14:30.458Z,69.54
2023-04-15T11:16:13.949Z,69.83
2023-04-15T11:17:36.840Z,70.04
2023-04-15T11:19:08.426Z,69.90
2023-04-15T11:21:02.622Z,69.99
2023-04-15T11:22:51.235Z,69.82
2023-04-15T11:24:34.554Z,70.07
2023-04-15T11:26:09.514Z,69.76
2023-04-15T11:27:49.344Z,69.56
2023-04-15T11:29:21.384Z,68.99
2023-04-15T11:30:55.622Z,68.90
2023-04-15T11:32:27.581Z,69.05
2023-04-15T11:34:01.860Z,69.39
2023-04-15T11:35:45.646Z,69.18
2023-04-15T11:37:17.354Z,69.07
2023-04-15T11:38:49.664Z,68.71
2023-04-15T11:40:23.787Z,68.54
2023-04-15T11:42:07.093Z,68.35
2023-04-15T11:43:41.846Z,68.50
2023-04-15T11:45:18.171Z,69.13
2023-04-15T11:47:01.825Z,69.22
2023-04-15T11:48:33.738Z,69.49
2023-04-15T11:50:17.190Z,69.46
2023-04-15T11:51:56.724Z,69.52
2023-04-15T11:53:40.450Z,69.25
2023-04-15T11:55:23.795Z,69.24
2023-04-15T11:57:07.586Z,69.06
2023-04-15T11:58:51.576Z,69.10
2023-04-15T12:00:35.332Z,69.29
2023-04-15T12:02:14.883Z,69.30
2023-04-15T12:03:59.037Z,69.26
2023-04-15T12:05:42.873Z,69.43
2023-04-15T12:07:12.324Z,69.56
2023-04-15T12:08:48.044Z,70.06
2023-04-15T12:10:31.448Z,69.61
2023-04-15T12:12:13.142Z,69.28
2023-04-15T12:13:45.512Z,68.98
2023-04-15T12:15:38.654Z,68.35
2023-04-15T12:17:22.497Z,66.90
2023-04-15T12:19:09.957Z,66.53
2023-04-15T12:20:53.911Z,66.65
2023-04-15T12:22:26.339Z,67.02
2023-04-15T12:23:58.664Z,67.78
2023-04-15T12:25:32.400Z,68.56
2023-04-15T12:26:55.260Z,69.10
2023-04-15T12:28:26.981Z,69.57
2023-04-15T12:30:10.022Z,69.88
2023-04-15T12:31:49.473Z,71.00
2023-04-15T12:33:16.974Z,71.85
2023-04-15T12:34:37.333Z,72.11
2023-04-15T12:36:05.049Z,71.60
2023-04-15T12:37:48.992Z,71.91
2023-04-15T12:39:11.335Z,72.62
2023-04-15T12:40:48.710Z,73.32
2023-04-15T12:42:21.803Z,73.67
2023-04-15T12:44:00.924Z,74.53
2023-04-15T12:45:33.045Z,74.16
2023-04-15T12:47:07.359Z,74.75
2023-04-15T12:48:47.776Z,74.48
2023-04-15T12:50:21.626Z,74.66
2023-04-15T12:51:55.660Z,74.48
2023-04-15T12:53:25.895Z,74.06
2023-04-15T12:54:46.232Z,74.52
2023-04-15T12:56:29.740Z,75.15
2023-04-15T12:58:13.141Z,75.39
2023-04-15T12:59:35.750Z,75.12
2023-04-15T13:01:10.143Z,75.20
2023-04-15T13:02:50.122Z,75.65
2023-04-15T13:04:32.122Z,76.04
2023-04-15T13:05:52.921Z,75.91
2023-04-15T13:07:22.895Z,76.37
2023-04-15T13:09:03.975Z,76.34
2023-04-15T13:10:38.758Z,76.37
2023-04-15T13:12:22.362Z,77.30
2023-04-15T13:14:13.663Z,76.86
2023-04-15T13:15:44.958Z,77.46
2023-04-15T13:17:28.963Z,77.06
2023-04-15T13:19:08.036Z,76.44
2023-04-15T13:20:45.552Z,76.52
2023-04-15T13:22:17.440Z,76.75
2023-04-15T13:24:02.229Z,76.44
2023-04-15T13:25:54.306Z,76.12
2023-04-15T13:27:25.881Z,76.16
2023-04-15T13:29:08.907Z,76.80
2023-04-15T13:30:52.913Z,76.64
2023-04-15T13:32:38.826Z,77.11
2023-04-15T13:34:10.244Z,76.23
2023-04-15T13:35:51.604Z,76.17
2023-04-15T13:37:26.037Z,75.48
2023-04-15T13:39:09.347Z,75.47
2023-04-15T13:40:41.552Z,75.20
2023-04-15T13:42:21.152Z,75.77
2023-04-15T13:44:05.221Z,75.51
2023-04-15T13:45:49.440Z,75.57
2023-04-15T13:47:21.479Z,76.05
2023-04-15T13:48:55.877Z,75.73
2023-04-15T13:50:28.806Z,75.32
2023-04-15T13:52:00.608Z,75.18
2023-04-15T13:53:40.777Z,75.44
2023-04-15T13:55:08.270Z,75.50
2023-04-15T13:57:03.777Z,75.95
2023-04-15T13:58:47.770Z,75.75
2023-04-15T14:00:31.120Z,75.91
2023-04-15T14:02:14.800Z,76.27
2023-04-15T14:03:35.878Z,76.24
2023-04-15T14:05:19.690Z,75.71
2023-04-15T14:07:05.071Z,75.72
2023-04-15T14:08:25.636Z,75.44
2023-04-15T14:09:59.996Z,75.52
2023-04-15T14:11:44.852Z,75.39
2023-04-15T14:13:18.712Z,75.72
2023-04-15T14:14:52.958Z,75.84
2023-04-15T14:16:22.423Z,75.96
2023-04-15T14:17:43.319Z,76.03
2023-04-15T14:19:17.245Z,75.69
2023-04-15T14:20:49.440Z,75.98
2023-04-15T14:22:11.812Z,75.59
2023-04-15T14:23:43.963Z,75.23
2023-04-15T14:25:30.513Z,76.03
2023-04-15T14:26:57.098Z,76.28
2023-04-15T14:28:31.359Z,76.04
2023-04-15T14:30:05.306Z,76.04
2023-04-15T14:32:11.552Z,75.99
2023-04-15T14:33:43.336Z,76.44
2023-04-15T14:35:26.859Z,76.38
2023-04-15T14:37:13.270Z,76.50
2023-04-15T14:38:56.848Z,76.45
2023-04-15T14:40:42.563Z,77.23
2023-04-15T14:42:14.528Z,77.34
2023-04-15T14:45:51.996Z,77.34
2023-04-15T14:47:27.281Z,77.30
2023-04-15T14:49:00.770Z,78.06
2023-04-15T14:50:54.777Z,77.37
2023-04-15T14:52:28.282Z,77.12
2023-04-15T14:54:04.854Z,77.00
2023-04-15T14:55:52.020Z,77.49
2023-04-15T14:57:25.493Z,76.66
2023-04-15T14:59:01.744Z,76.89
2023-04-15T15:00:55.090Z,77.00
2023-04-15T15:02:40.613Z,77.09
2023-04-15T15:04:16.271Z,77.28
2023-04-15T15:06:01.754Z,77.07
2023-04-15T15:07:43.530Z,77.18
2023-04-15T15:09:37.746Z,77.61
2023-04-15T15:11:01.941Z,77.81
2023-04-15T15:12:56.756Z,77.63
2023-04-15T15:14:41.714Z,77.07
2023-04-15T15:16:28.927Z,77.09
2023-04-15T15:18:04.843Z,77.50
2023-04-15T15:19:59.759Z,77.66
2023-04-15T15:21:44.672Z,77.44
2023-04-15T15:23:18.238Z,77.72
2023-04-15T15:24:59.144Z,77.68
2023-04-15T15:26:43.898Z,77.68
2023-04-15T15:28:31.608Z,77.35
2023-04-15T15:30:16.483Z,77.51
2023-04-15T15:31:57.554Z,77.80
2023-04-15T15:33:33.254Z,77.22
2023-04-15T15:35:08.950Z,77.34
2023-04-15T15:36:44.828Z,77.83
2023-04-15T15:38:30.150Z,77.84
2023-04-15T15:39:55.010Z,77.71
2023-04-15T15:41:28.222Z,77.93
2023-04-15T15:43:09.152Z,77.95
2023-04-15T15:44:45.405Z,76.97
2023-04-15T15:46:25.792Z,76.90
2023-04-15T15:48:19.106Z,76.88
2023-04-15T15:49:54.812Z,77.11
2023-04-15T15:51:48.528Z,77.71
2023-04-15T15:53:24.240Z,77.53
2023-04-15T15:55:09.078Z,77.59
2023-04-15T15:56:53.047Z,77.65
2023-04-15T15:58:46.495Z,78.03
2023-04-15T16:00:15.833Z,77.92
2023-04-15T16:01:57.526Z,77.84
2023-04-15T16:03:26.947Z,77.87
2023-04-15T16:05:01.807Z,78.22
2023-04-15T16:06:55.683Z,78.52
2023-04-15T16:08:24.836Z,78.52
2023-04-15T16:09:54.848Z,78.46
2023-04-15T16:11:31.000Z,78.20
2023-04-15T16:13:07.248Z,78.31
2023-04-15T16:14:52.682Z,78.62
2023-04-15T16:16:38.097Z,78.55
2023-04-15T16:18:13.383Z,79.01
2023-04-15T16:19:57.932Z,78.64
2023-04-15T16:21:36.097Z,78.45
2023-04-15T16:23:09.186Z,78.74
2023-04-15T16:24:45.114Z,79.35
2023-04-15T16:26:18.823Z,78.94
2023-04-15T16:28:08.324Z,79.61
2023-04-15T16:29:57.026Z,79.56
2023-04-15T16:31:32.250Z,79.41
2023-04-15T16:33:05.421Z,79.11
2023-04-15T16:34:42.410Z,79.57
2023-04-15T16:36:08.765Z,79.55
2023-04-15T16:37:44.923Z,79.48
2023-04-15T16:39:16.170Z,79.44
2023-04-15T16:41:01.563Z,79.49
2023-04-15T16:42:47.040Z,79.35
2023-04-15T16:44:36.921Z,79.53
2023-04-15T16:46:30.854Z,79.64
2023-04-15T16:48:11.484Z,79.74
2023-04-15T16:49:45.977Z,79.42
2023-04-15T16:51:31.890Z,79.25
2023-04-15T16:53:22.044Z,79.12
2023-04-15T16:54:53.924Z,79.36
2023-04-15T16:56:29.475Z,79.14
2023-04-15T16:58:22.731Z,79.06
2023-04-15T17:00:07.710Z,79.74
2023-04-15T17:01:53.479Z,79.31
2023-04-15T17:03:39.531Z,79.72
2023-04-15T17:05:13.207Z,79.31
2023-04-15T17:06:58.598Z,79.87
2023-04-15T17:08:27.804Z,79.87
2023-04-15T17:09:56.870Z,79.74
2023-04-15T17:11:50.448Z,80.12
2023-04-15T17:13:26.738Z,80.00
2023-04-15T17:15:02.313Z,80.27
2023-04-15T17:16:48.014Z,80.13
2023-04-15T17:18:28.265Z,80.00
2023-04-15T17:19:50.603Z,80.17
2023-04-15T17:21:14.289Z,80.26
2023-04-15T17:22:50.188Z,80.27
2023-04-15T17:24:36.961Z,80.20
2023-04-15T17:26:22.535Z,80.71
2023-04-15T17:28:08.021Z,80.37
2023-04-15T17:29:53.664Z,80.30
2023-04-15T17:31:46.537Z,80.61
2023-04-15T17:33:54.205Z,80.72
2023-04-15T17:35:35.764Z,80.36
2023-04-15T17:37:18.842Z,80.55
2023-04-15T17:38:52.727Z,80.98
2023-04-15T17:40:37.620Z,80.78
2023-04-15T17:42:09.124Z,80.76
2023-04-15T17:43:33.124Z,80.96
2023-04-15T17:44:55.131Z,81.13
2023-04-15T17:46:19.286Z,80.63
2023-04-15T17:48:08.625Z,80.54
2023-04-15T17:49:54.578Z,80.35
2023-04-15T17:51:20.416Z,80.44
2023-04-15T17:52:42.662Z,80.64
2023-04-15T17:54:18.384Z,80.14
2023-04-15T17:55:56.723Z,79.99
2023-04-15T17:57:30.385Z,80.30
2023-04-15T17:59:15.442Z,80.42
2023-04-15T18:00:37.885Z,80.57
2023-04-15T18:01:59.845Z,80.26
2023-04-15T18:03:41.090Z,80.72
2023-04-15T18:05:26.669Z,80.53
2023-04-15T18:06:49.190Z,80.23
2023-04-15T18:08:34.389Z,80.43
2023-04-15T18:10:08.209Z,80.59
2023-04-15T18:11:57.108Z,80.49
2023-04-15T18:13:43.694Z,80.54
2023-04-15T18:15:20.343Z,80.28
2023-04-15T18:17:06.008Z,80.36
2023-04-15T18:18:52.261Z,80.34
2023-04-15T18:20:38.079Z,80.05
2023-04-15T18:22:23.953Z,80.18
2023-04-15T18:23:57.645Z,80.12
2023-04-15T18:25:51.609Z,80.14
2023-04-15T18:27:27.688Z,80.22
2023-04-15T18:29:13.128Z,79.75
2023-04-15T18:30:56.988Z,79.65
2023-04-15T18:32:38.400Z,79.69
2023-04-15T18:34:12.361Z,79.11
2023-04-15T18:35:54.872Z,78.63
2023-04-15T18:37:33.646Z,79.11
2023-04-15T18:39:19.838Z,79.02
2023-04-15T18:41:05.861Z,78.57
2023-04-15T18:42:40.616Z,78.56
2023-04-15T18:44:14.278Z,78.89
2023-04-15T18:45:57.518Z,78.84
2023-04-15T18:47:50.924Z,78.49
2023-04-15T18:49:15.396Z,78.17
2023-04-15T18:50:39.816Z,78.26
2023-04-15T18:52:20.403Z,78.22
2023-04-15T18:53:50.261Z,78.45
2023-04-15T18:55:24.284Z,78.57
2023-04-15T18:57:09.685Z,78.67
2023-04-15T18:59:18.220Z,78.93
2023-04-15T19:00:42.038Z,78.85
2023-04-15T19:02:35.778Z,78.90
2023-04-15T19:04:12.617Z,79.03
2023-04-15T19:05:46.466Z,79.13
2023-04-15T19:07:27.390Z,79.21
2023-04-15T19:09:03.438Z,79.58
2023-04-15T19:10:25.663Z,80.20
2023-04-15T19:12:12.155Z,80.58
2023-04-15T19:13:57.753Z,80.28
2023-04-15T19:15:52.834Z,80.34
2023-04-15T19:17:28.999Z,79.83
2023-04-15T19:19:23.774Z,79.44
2023-04-15T19:20:57.243Z,79.70
2023-04-15T19:22:31.230Z,79.72
2023-04-15T19:24:21.667Z,79.85
2023-04-15T19:25:58.657Z,79.84
2023-04-15T19:27:44.692Z,79.47
2023-04-15T19:29:38.923Z,79.93
2023-04-15T19:31:15.245Z,80.00
2023-04-15T19:32:49.145Z,80.01
2023-04-15T19:34:25.617Z,80.01
2023-04-15T19:35:59.249Z,79.96
2023-04-15T19:37:34.535Z,80.03
2023-04-15T19:39:21.879Z,80.19
2023-04-15T19:40:47.111Z,80.07
2023-04-15T19:42:27.812Z,80.16
2023-04-15T19:44:13.100Z,80.41
2023-04-15T19:45:54.659Z,80.36
2023-04-15T19:59:03.124Z,80.46
2023-04-15T20:00:36.770Z,80.01
2023-04-15T20:02:22.718Z,79.53
2023-04-15T20:04:09.061Z,77.99
2023-04-15T20:06:04.073Z,79.17
2023-04-15T20:07:59.952Z,79.61
2023-04-15T20:09:45.638Z,79.76
2023-04-15T20:12:09.485Z,79.66
2023-04-15T20:13:42.179Z,79.14
2023-04-15T20:15:27.205Z,80.04
2023-04-15T20:17:23.041Z,79.68
2023-04-15T20:19:16.196Z,79.78
2023-04-15T20:21:06.811Z,80.33
2023-04-15T20:22:53.222Z,80.21
2023-04-15T20:24:15.431Z,79.81
2023-04-15T20:26:00.955Z,80.31
2023-04-15T20:27:56.140Z,80.19
2023-04-15T20:29:43.364Z,80.16
2023-04-15T20:31:26.107Z,80.56
2023-04-15T20:33:11.573Z,80.47
2023-04-15T20:34:51.738Z,80.32
2023-04-15T20:36:36.697Z,80.20
2023-04-15T20:38:22.440Z,80.30
2023-04-15T20:39:56.229Z,80.21
2023-04-15T20:41:30.520Z,80.09
2023-04-15T20:43:15.867Z,80.32
2023-04-15T20:44:40.284Z,80.30
2023-04-15T20:46:20.392Z,80.48
2023-04-15T20:47:56.037Z,80.34
2023-04-15T20:49:30.420Z,80.19
2023-04-15T20:50:52.591Z,80.35
2023-04-15T20:52:38.765Z,80.45
2023-04-15T20:54:24.002Z,80.29
2023-04-15T20:56:00.372Z,80.24
2023-04-15T20:57:33.685Z,80.34
2023-04-15T20:59:07.843Z,80.28
2023-04-15T21:00:50.184Z,80.47
2023-04-15T21:02:12.380Z,80.41
2023-04-15T21:03:42.255Z,80.38
2023-04-15T21:05:19.694Z,80.60
2023-04-15T21:07:08.124Z,80.76
2023-04-15T21:08:53.796Z,80.78
2023-04-15T21:10:34.974Z,80.86
2023-04-15T21:12:19.992Z,80.79
2023-04-15T21:14:14.308Z,80.70
2023-04-15T21:16:00.658Z,80.57
2023-04-15T21:17:35.654Z,80.78
2023-04-15T21:19:17.643Z,80.68
2023-04-15T21:20:52.990Z,80.83
2023-04-15T21:22:39.057Z,80.64
2023-04-15T21:24:13.259Z,80.49